Time;durP1;ratioP1;P1;durP2;ratioP2;P2;SDS_P1;SDS_P2;PMS_P1;PMS_P2;Temp;Humidity;BMP_temperature;BMP_pressure;BME280_temperature;BME280_humidity;BME280_pressure;Samples;Min_cycle;Max_cycle;Signal;HPM_P1;HPM_P2
2022/07/04 00:00:04;;;;;;;0.98;0.90;;;;;;;24.01;54.16;93583.00;5011906;28;20056;-94
2022/07/04 00:02:32;;;;;;;0.80;0.73;;;;;;;24.01;54.23;93592.00;4997426;28;20135;-94
2022/07/04 00:04:59;;;;;;;0.80;0.80;;;;;;;23.99;54.20;93583.53;4990629;28;20041;-94
2022/07/04 00:07:25;;;;;;;0.63;0.60;;;;;;;24.02;54.10;93578.94;4996854;28;20510;-93
2022/07/04 00:09:51;;;;;;;0.80;0.80;;;;;;;24.00;54.49;93568.44;4997347;28;20041;-94
2022/07/04 00:12:18;;;;;;;0.77;0.77;;;;;;;24.00;54.12;93565.69;4989174;28;20731;-93
2022/07/04 00:14:44;;;;;;;1.00;0.80;;;;;;;24.02;54.20;93573.41;5000851;28;20043;-94
2022/07/04 00:17:10;;;;;;;0.80;0.80;;;;;;;24.00;54.13;93567.69;5013350;28;20037;-94
2022/07/04 00:19:36;;;;;;;0.85;0.70;;;;;;;24.00;54.30;93568.44;4990148;28;20087;-94
2022/07/04 00:22:02;;;;;;;0.80;0.80;;;;;;;24.00;54.13;93565.69;4981505;28;20045;-95
2022/07/04 00:24:27;;;;;;;0.82;0.82;;;;;;;24.00;54.06;93559.41;4988884;28;20056;-94
2022/07/04 00:26:53;;;;;;;0.60;0.60;;;;;;;24.01;54.23;93560.91;4989651;28;20048;-95
2022/07/04 00:29:18;;;;;;;0.43;0.40;;;;;;;23.96;54.17;93554.25;5021275;28;20029;-94
2022/07/04 00:31:45;;;;;;;0.70;0.70;;;;;;;23.99;54.07;93552.41;5004668;28;20029;-94
2022/07/04 00:34:10;;;;;;;1.08;0.90;;;;;;;23.99;54.25;93533.09;4972674;28;20034;-94
2022/07/04 00:36:37;;;;;;;2.13;0.80;;;;;;;23.98;54.33;93543.38;4989110;28;20088;-95
2022/07/04 00:39:03;;;;;;;0.68;0.68;;;;;;;23.99;54.30;93541.38;4992793;28;20046;-93
2022/07/04 00:41:29;;;;;;;0.85;0.60;;;;;;;23.98;54.18;93534.38;4978557;28;20049;-94
2022/07/04 00:44:08;;;;;;;1.08;0.93;;;;;;;23.97;54.27;93543.94;4981712;28;20041;-95
2022/07/04 00:46:34;;;;;;;0.85;0.82;;;;;;;23.96;54.35;93551.47;4997611;28;20044;-94
2022/07/04 00:49:04;;;;;;;0.82;0.82;;;;;;;23.98;54.32;93551.69;5013375;28;20076;-94
2022/07/04 00:51:29;;;;;;;0.82;0.77;;;;;;;23.95;54.32;93541.72;4999643;28;20033;-94
2022/07/04 00:53:55;;;;;;;0.63;0.60;;;;;;;23.96;54.28;93542.44;4975565;28;20081;-94
2022/07/04 00:56:21;;;;;;;0.60;0.60;;;;;;;23.95;54.06;93543.75;4987805;28;20477;-94
2022/07/04 00:58:50;;;;;;;0.88;0.73;;;;;;;23.93;54.09;93533.97;4973233;28;20038;-93
2022/07/04 01:01:16;;;;;;;1.20;0.90;;;;;;;23.94;54.13;93540.22;4986168;28;20041;-93
2022/07/04 01:03:42;;;;;;;1.00;0.85;;;;;;;23.94;54.24;93540.22;4971503;28;20038;-94
2022/07/04 01:06:08;;;;;;;0.80;0.70;;;;;;;23.95;54.24;93538.22;4966333;28;20038;-94
2022/07/04 01:08:36;;;;;;;0.82;0.70;;;;;;;23.94;54.18;93534.72;4989216;28;20040;-94
2022/07/04 01:11:03;;;;;;;0.65;0.65;;;;;;;23.96;54.29;93534.91;4988637;28;20041;-94
2022/07/04 01:13:28;;;;;;;0.70;0.70;;;;;;;23.95;54.04;93530.66;4975445;28;20507;-93
2022/07/04 01:15:54;;;;;;;0.85;0.68;;;;;;;23.93;53.99;93528.44;4979496;28;20170;-93
2022/07/04 01:18:19;;;;;;;1.10;0.70;;;;;;;23.94;54.27;93537.47;4994584;28;20076;-93
2022/07/04 01:20:45;;;;;;;1.05;0.90;;;;;;;23.93;53.99;93527.72;4988459;28;20045;-94
2022/07/04 01:23:10;;;;;;;1.40;1.17;;;;;;;23.93;54.13;93530.47;4986516;28;20061;-93
2022/07/04 01:25:36;;;;;;;1.00;0.90;;;;;;;23.93;54.16;93522.19;4998887;28;20503;-94
2022/07/04 01:28:02;;;;;;;0.73;0.70;;;;;;;23.92;54.26;93529.00;4981600;28;20076;-94
2022/07/04 01:30:28;;;;;;;1.10;0.75;;;;;;;23.91;54.17;93533.78;5022652;28;20040;-95
2022/07/04 01:32:54;;;;;;;0.93;0.63;;;;;;;23.90;54.29;93528.78;5000537;28;20040;-94
2022/07/04 01:35:20;;;;;;;1.10;0.80;;;;;;;23.92;54.12;93531.75;4988119;28;20034;-94
2022/07/04 01:37:49;;;;;;;0.90;0.88;;;;;;;23.91;53.99;93533.78;5029349;28;20214;-94
2022/07/04 01:40:14;;;;;;;1.05;0.75;;;;;;;23.91;54.13;93522.00;4981603;28;20054;-93
2022/07/04 01:42:44;;;;;;;0.80;0.70;;;;;;;23.89;54.21;93528.06;4993351;28;20072;-94
2022/07/04 01:45:10;;;;;;;1.05;0.80;;;;;;;23.91;54.16;93527.50;5028158;28;20165;-93
2022/07/04 01:47:36;;;;;;;0.60;0.52;;;;;;;23.89;54.19;93525.28;5000274;28;20060;-94
2022/07/04 01:50:02;;;;;;;0.80;0.80;;;;;;;23.89;54.12;93536.34;5000327;28;20412;-93
2022/07/04 01:52:30;;;;;;;0.95;0.75;;;;;;;23.92;54.13;93513.16;4990583;28;20044;-94
2022/07/04 01:54:56;;;;;;;0.85;0.70;;;;;;;23.92;54.21;93520.72;5000571;28;20490;-94
2022/07/04 01:57:28;;;;;;;0.60;0.60;;;;;;;23.88;54.15;93525.84;4986181;28;20090;-94
2022/07/04 02:02:40;;;;;;;1.20;0.90;;;;;;;23.91;53.97;93528.25;5020778;28;20084;-93
2022/07/04 02:05:06;;;;;;;0.80;0.70;;;;;;;23.89;54.19;93517.00;4988865;28;20072;-94
2022/07/04 02:07:31;;;;;;;1.13;0.80;;;;;;;23.89;54.12;93525.28;5025713;28;20357;-94
2022/07/04 02:09:59;;;;;;;1.00;0.90;;;;;;;23.87;54.16;93530.63;4983034;28;20048;-94
2022/07/04 02:15:09;;;;;;;0.98;0.70;;;;;;;23.88;54.12;93534.13;5007504;28;20071;-93
2022/07/04 02:17:35;;;;;;;1.15;0.77;;;;;;;23.88;54.03;93534.13;4991831;28;20141;-94
2022/07/04 02:20:04;;;;;;;0.77;0.77;;;;;;;23.87;54.20;93527.13;4999429;28;20574;-95
2022/07/04 02:22:35;;;;;;;0.82;0.82;;;;;;;23.87;54.02;93536.13;4993285;28;20064;-94
2022/07/04 02:25:02;;;;;;;1.17;0.70;;;;;;;23.87;54.00;93532.63;5018898;28;20129;-94
2022/07/04 02:27:32;;;;;;;1.23;0.70;;;;;;;23.85;53.98;93533.19;5004233;28;20391;-94
2022/07/04 02:29:58;;;;;;;0.80;0.80;;;;;;;23.88;53.79;93531.34;5010347;28;20112;-93
2022/07/04 02:32:26;;;;;;;0.80;0.80;;;;;;;23.87;54.21;93527.84;4998524;28;20559;-94
2022/07/04 02:34:54;;;;;;;0.80;0.70;;;;;;;23.86;54.14;93540.19;4991066;28;20558;-94
2022/07/04 02:37:20;;;;;;;0.82;0.77;;;;;;;23.85;54.10;93538.69;5023468;28;20045;-94
2022/07/04 02:39:48;;;;;;;1.05;0.98;;;;;;;23.85;54.07;93543.50;5001191;28;20474;-93
2022/07/04 02:42:13;;;;;;;0.88;0.68;;;;;;;23.85;54.03;93537.97;4998809;28;20415;-94
2022/07/04 02:44:39;;;;;;;0.70;0.70;;;;;;;23.86;53.84;93548.47;5008276;28;20349;-93
2022/07/04 02:47:04;;;;;;;1.00;0.90;;;;;;;23.85;54.03;93547.00;4994826;28;20033;-94
2022/07/04 02:49:30;;;;;;;0.90;0.68;;;;;;;23.84;53.97;93548.28;5028221;28;20048;-93
2022/07/04 02:51:55;;;;;;;0.63;0.60;;;;;;;23.84;53.98;93551.03;5002576;28;20041;-94
2022/07/04 02:54:21;;;;;;;0.80;0.77;;;;;;;23.84;54.24;93545.50;4997774;28;20507;-94
2022/07/04 02:56:46;;;;;;;1.17;1.00;;;;;;;23.84;53.95;93545.50;4977024;28;20464;-93
2022/07/04 02:59:12;;;;;;;1.05;0.80;;;;;;;23.84;54.18;93547.53;5000655;28;20597;-94
2022/07/04 03:01:37;;;;;;;1.77;0.88;;;;;;;23.82;54.05;93550.81;4996068;28;20050;-94
2022/07/04 03:04:03;;;;;;;0.70;0.70;;;;;;;23.82;54.44;93550.81;4998369;28;20136;-94
2022/07/04 03:06:29;;;;;;;1.45;0.77;;;;;;;23.84;54.47;93547.53;4963192;28;20049;-95
2022/07/04 03:08:55;;;;;;;1.00;0.70;;;;;;;23.83;54.09;93552.31;5001667;28;20069;-94
2022/07/04 03:11:20;;;;;;;0.77;0.73;;;;;;;23.83;54.27;93554.31;4986444;28;20453;-94
2022/07/04 03:13:48;;;;;;;1.00;0.60;;;;;;;23.84;54.11;93558.56;4954177;28;20513;-95
2022/07/04 03:16:14;;;;;;;1.15;0.65;;;;;;;23.81;54.16;93560.41;4918646;28;20039;-93
2022/07/04 03:18:39;;;;;;;2.10;0.77;;;;;;;23.82;54.19;93561.88;4929735;28;20118;-93
2022/07/04 03:21:05;;;;;;;0.70;0.52;;;;;;;23.83;54.21;93563.34;4900205;29;20043;-93
2022/07/04 03:23:31;;;;;;;0.88;0.70;;;;;;;23.82;54.32;93564.63;4897103;29;20044;-93
2022/07/04 03:25:57;;;;;;;0.75;0.70;;;;;;;23.82;54.19;93559.13;4888239;29;20043;-94
2022/07/04 03:28:24;;;;;;;0.60;0.60;;;;;;;23.81;54.35;93565.19;4902919;28;20547;-94
2022/07/04 03:30:50;;;;;;;0.70;0.70;;;;;;;23.81;54.35;93557.66;4939004;28;20047;-94
2022/07/04 03:33:16;;;;;;;1.42;0.70;;;;;;;23.81;54.19;93556.91;4933302;28;20082;-95
2022/07/04 03:35:42;;;;;;;0.73;0.70;;;;;;;23.81;54.20;93563.19;4902277;29;20667;-94
2022/07/04 03:38:08;;;;;;;0.60;0.60;;;;;;;23.81;54.10;93556.91;4933126;28;20075;-94
2022/07/04 03:40:38;;;;;;;0.98;0.88;;;;;;;23.80;54.25;93564.47;4951868;28;20050;-94
2022/07/04 03:43:14;;;;;;;0.70;0.70;;;;;;;23.81;54.03;93567.97;4922964;28;20097;-93
2022/07/04 03:45:41;;;;;;;5.38;1.00;;;;;;;23.79;54.20;93565.00;4947227;28;20043;-92
2022/07/04 03:48:08;;;;;;;3.30;1.88;;;;;;;23.81;53.67;93582.50;4904214;29;20043;-93
2022/07/04 03:50:34;;;;;;;2.50;1.92;;;;;;;23.77;53.67;93582.09;4877498;29;20504;-89
2022/07/04 03:53:00;;;;;;;1.40;1.27;;;;;;;23.75;53.77;93594.97;4963762;28;20139;-88
2022/07/04 03:55:25;;;;;;;1.48;1.33;;;;;;;23.78;53.79;93599.41;4976473;28;20095;-89
2022/07/04 03:58:04;;;;;;;3.03;1.83;;;;;;;23.77;53.83;93609.72;4966076;28;20170;-93
2022/07/04 04:00:42;;;;;;;2.53;2.33;;;;;;;23.67;54.02;93627.28;4944172;28;20059;-93
2022/07/04 04:06:15;;;;;;;3.75;2.58;;;;;;;23.58;53.35;93654.09;4982784;28;20511;-93
2022/07/04 04:08:52;;;;;;;4.13;2.67;;;;;;;23.56;53.07;93648.38;4921557;28;20065;-92
2022/07/04 04:11:31;;;;;;;2.80;2.42;;;;;;;23.49;52.95;93654.53;4889165;28;20038;-92
2022/07/04 04:14:12;;;;;;;4.50;3.08;;;;;;;23.47;52.89;93656.34;4944418;28;20054;-93
2022/07/04 04:16:50;;;;;;;8.18;3.50;;;;;;;23.37;53.04;93663.63;4950174;28;20101;-92
2022/07/04 04:19:46;;;;;;;21.17;4.85;;;;;;;23.38;52.91;93668.59;4898710;28;20054;-93
2022/07/04 04:22:38;;;;;;;13.35;4.20;;;;;;;23.24;53.19;93667.91;4839682;28;20466;-93
2022/07/04 04:25:12;;;;;;;11.00;3.85;;;;;;;23.14;53.58;93668.91;4882073;29;20051;-95
2022/07/04 04:27:57;;;;;;;;;;;;;;;;;;;;;
2022/07/04 04:30:22;;;;;;;9.07;4.78;;;;;;;23.13;53.79;93679.22;4826072;29;20053;-91
2022/07/04 04:32:48;;;;;;;20.25;4.35;;;;;;;23.14;53.58;93679.94;4859252;29;20045;-92
2022/07/04 04:35:14;;;;;;;10.38;6.88;;;;;;;23.17;53.84;93676.84;4836093;29;20614;-91
2022/07/04 04:37:39;;;;;;;9.65;8.45;;;;;;;23.15;54.23;93682.16;4842870;29;20056;-86
2022/07/04 04:40:05;;;;;;;24.92;17.25;;;;;;;23.17;53.83;93671.31;4833664;29;20053;-92
2022/07/04 04:42:33;;;;;;;8.50;6.80;;;;;;;23.19;53.83;93681.81;4839883;29;20079;-92
2022/07/04 04:47:28;;;;;;;16.02;7.40;;;;;;;23.12;54.06;93690.78;5004852;28;20122;-90
2022/07/04 04:50:12;;;;;;;7.20;4.57;;;;;;;22.95;54.52;93706.94;4988615;28;20053;-91
2022/07/04 04:52:45;;;;;;;11.52;5.13;;;;;;;22.89;54.56;93699.53;4972539;28;20104;-92
2022/07/04 04:55:11;;;;;;;29.92;11.48;;;;;;;22.94;54.56;93714.47;4983905;28;20038;-89
2022/07/04 04:57:36;;;;;;;16.90;8.70;;;;;;;22.98;54.33;93730.66;4984606;28;20121;-89
2022/07/04 05:00:05;;;;;;;17.20;11.27;;;;;;;22.93;54.47;93737.81;4990644;28;20551;-91
2022/07/04 05:02:33;;;;;;;10.90;5.28;;;;;;;22.76;54.60;93734.59;4987995;23;20173;-93
2022/07/04 05:04:59;;;;;;;8.65;5.07;;;;;;;22.70;55.00;93731.97;4934885;28;20050;-93
2022/07/04 05:07:24;;;;;;;13.98;5.28;;;;;;;22.73;54.88;93728.16;4927340;28;20053;-94
2022/07/04 05:09:50;;;;;;;10.05;6.72;;;;;;;22.60;54.95;93730.91;4873356;28;20051;-88
2022/07/04 05:12:16;;;;;;;14.13;7.78;;;;;;;22.58;55.23;93719.66;4885803;28;20078;-92
2022/07/04 05:14:42;;;;;;;30.67;11.18;;;;;;;22.64;55.19;93719.56;4901208;28;20047;-91
2022/07/04 05:17:10;;;;;;;29.20;10.52;;;;;;;22.67;55.13;93719.25;4897823;28;20122;-92
2022/07/04 05:19:35;;;;;;;18.70;9.68;;;;;;;22.69;55.04;93724.22;4890296;28;20051;-92
2022/07/04 05:22:01;;;;;;;18.77;9.13;;;;;;;22.65;55.36;93732.81;4867880;28;20544;-90
2022/07/04 05:24:28;;;;;;;26.60;10.30;;;;;;;22.69;55.08;93744.25;4883764;28;20098;-92
2022/07/04 05:26:54;;;;;;;28.73;12.45;;;;;;;22.65;55.37;93732.81;4881068;28;20046;-91
2022/07/04 05:29:27;;;;;;;38.78;13.63;;;;;;;22.67;55.52;93735.78;4913997;28;20055;-94
2022/07/04 05:31:53;;;;;;;73.13;19.80;;;;;;;22.64;55.55;93738.84;4895661;28;20047;-92
2022/07/04 05:34:18;;;;;;;52.45;16.27;;;;;;;22.58;55.79;93739.69;4916072;28;20047;-92
2022/07/04 05:36:48;;;;;;;61.78;29.95;;;;;;;22.65;55.66;93737.59;4919698;28;20219;-91
2022/07/04 05:39:17;;;;;;;81.18;35.90;;;;;;;22.56;55.63;93739.47;4937460;28;20438;-92
2022/07/04 05:41:53;;;;;;;80.03;39.33;;;;;;;22.54;55.69;93733.00;4908937;28;20056;-93
2022/07/04 05:44:19;;;;;;;98.40;48.75;;;;;;;22.49;55.70;93734.63;4995488;23;20045;-90
2022/07/04 05:46:55;;;;;;;94.55;51.53;;;;;;;22.62;55.50;93744.91;4982210;28;20021;-92
2022/07/04 06:01:14;;;;;;;;;;;;;;;;;;;;;
2022/07/04 06:06:51;;;;;;;70.83;16.80;;;;;;;22.50;55.95;93733.34;4968683;28;20085;-91
2022/07/04 06:09:17;;;;;;;35.22;11.85;;;;;;;22.50;56.21;93733.34;4913343;28;20050;-91
2022/07/04 06:11:43;;;;;;;32.65;11.35;;;;;;;22.64;55.90;93733.34;4923772;28;20120;-89
2022/07/04 06:14:27;;;;;;;17.27;7.57;;;;;;;22.70;56.10;93725.72;4900005;28;20055;-94
2022/07/04 06:16:53;;;;;;;48.25;34.45;;;;;;;22.56;56.60;93720.19;4939815;28;20054;-90
2022/07/04 06:19:27;;;;;;;19.33;8.23;;;;;;;22.57;56.68;93729.22;4912019;28;20050;-93
2022/07/04 06:22:07;;;;;;;12.90;6.75;;;;;;;22.50;56.81;93722.34;4941168;28;20039;-94
2022/07/04 06:24:47;;;;;;;7.88;4.88;;;;;;;22.47;57.44;93723.41;4919514;28;20664;-91
2022/07/04 06:27:15;;;;;;;8.82;4.88;;;;;;;22.54;57.25;93731.00;4883561;29;20038;-93
2022/07/04 06:30:03;;;;;;;19.30;7.95;;;;;;;22.53;57.21;93748.06;4934503;23;20112;-92
2022/07/04 06:32:54;;;;;;;22.38;14.25;;;;;;;22.54;58.01;93738.53;4960898;28;20087;-92
2022/07/04 06:38:09;;;;;;;35.78;21.95;;;;;;;22.46;58.41;93734.94;5021820;23;21648;-93
2022/07/04 06:40:36;;;;;;;42.92;18.00;;;;;;;22.38;58.90;93726.56;5003586;23;20068;-91
2022/07/04 06:43:05;;;;;;;31.67;15.30;;;;;;;22.31;59.22;93723.69;4947819;28;20506;-93
2022/07/04 06:45:31;;;;;;;31.92;13.15;;;;;;;22.29;59.86;93726.25;4920689;28;20110;-92
2022/07/04 06:48:01;;;;;;;26.38;11.23;;;;;;;22.33;60.15;93715.63;4959218;28;20039;-93
2022/07/04 06:50:43;;;;;;;26.88;11.10;;;;;;;22.28;60.00;93714.50;4948155;28;20069;-92
2022/07/04 07:17:11;;;;;;;107.07;26.33;;;;;;;22.53;60.24;93679.19;4959997;28;20133;-94
2022/07/04 07:19:52;;;;;;;188.55;35.55;;;;;;;22.53;60.39;93695.72;5114020;22;20095;-95
2022/07/04 07:22:20;;;;;;;81.78;22.58;;;;;;;22.56;60.36;93698.16;4930745;28;20061;-94
2022/07/04 07:24:49;;;;;;;60.17;20.30;;;;;;;22.56;60.42;93695.41;4909129;29;20052;-91
2022/07/04 07:27:16;;;;;;;71.45;22.35;;;;;;;22.69;59.74;93693.91;5016446;22;20354;-93
2022/07/04 07:29:55;;;;;;;74.80;22.95;;;;;;;22.69;59.64;93702.94;5169466;23;20044;-96
2022/07/04 07:37:31;;;;;;;71.30;27.98;;;;;;;22.84;59.35;93707.91;5272717;23;20087;-92
2022/07/04 07:39:56;;;;;;;57.05;25.60;;;;;;;22.79;59.73;93711.50;4962098;28;20054;-91
2022/07/04 07:42:23;;;;;;;110.97;34.53;;;;;;;22.88;59.88;93702.81;4956182;28;20092;-91
2022/07/04 07:44:49;;;;;;;71.63;28.92;;;;;;;22.89;59.88;93707.06;4960307;28;20513;-92
2022/07/04 07:47:15;;;;;;;98.05;38.42;;;;;;;22.92;59.84;93711.50;4950375;28;20056;-94
2022/07/04 07:49:41;;;;;;;65.72;30.15;;;;;;;22.92;60.00;93708.75;4936606;29;20530;-93
2022/07/04 07:52:11;;;;;;;90.57;40.40;;;;;;;22.98;59.86;93697.59;5014506;22;20053;-93
2022/07/04 07:54:36;;;;;;;95.10;43.90;;;;;;;23.05;59.39;93700.44;5006518;28;20064;-94
2022/07/04 07:57:02;;;;;;;95.13;44.80;;;;;;;23.05;59.39;93705.22;5006276;28;20037;-91
2022/07/04 07:59:42;;;;;;;106.78;47.42;;;;;;;23.01;59.30;93700.00;5022229;28;20104;-95
2022/07/04 08:02:09;;;;;;;111.40;46.77;;;;;;;23.02;59.53;93709.78;5010618;28;20037;-93
2022/07/04 08:04:37;;;;;;;103.75;45.85;;;;;;;23.06;59.33;93712.94;4982532;28;20524;-94
2022/07/04 08:07:07;;;;;;;92.00;46.30;;;;;;;23.11;59.03;93701.06;5136688;23;20053;-90
2022/07/04 08:09:33;;;;;;;83.30;41.85;;;;;;;23.11;59.27;93694.81;5009563;28;20029;-92
2022/07/04 08:14:30;;;;;;;105.25;42.38;;;;;;;23.17;59.12;93698.16;5558678;22;20016;-93
2022/07/04 08:16:58;;;;;;;89.32;39.72;;;;;;;23.17;58.85;93693.38;4996601;28;20069;-96
2022/07/04 08:19:26;;;;;;;83.97;37.03;;;;;;;23.25;58.50;93690.72;5004028;28;20038;-95
2022/07/04 08:21:54;;;;;;;99.05;38.80;;;;;;;23.32;58.18;93692.06;5015175;28;20033;-93
2022/07/04 08:24:39;;;;;;;70.22;34.85;;;;;;;23.35;57.74;93689.00;4999762;28;20038;-92
2022/07/04 08:27:29;;;;;;;;;;;;;;;;;;;;;
2022/07/04 08:32:38;;;;;;;116.47;64.15;;;;;;;23.38;57.54;93690.69;5430654;22;20043;-95
2022/07/04 08:35:04;;;;;;;154.80;76.47;;;;;;;23.37;57.63;93702.25;5012895;28;20070;-95
2022/07/04 08:37:29;;;;;;;144.48;80.25;;;;;;;23.42;57.74;93702.09;4959192;28;20057;-93
2022/07/04 08:39:55;;;;;;;120.15;65.03;;;;;;;23.49;57.60;93693.16;4961873;28;20125;-93
2022/07/04 08:42:23;;;;;;;115.18;58.30;;;;;;;23.46;57.58;93701.78;4951682;28;20034;-95
2022/07/04 08:44:53;;;;;;;137.55;64.43;;;;;;;23.48;57.50;93694.44;4963327;28;20434;-94
2022/07/04 08:47:20;;;;;;;212.40;83.40;;;;;;;23.56;57.25;93706.34;4963622;28;20065;-95
2022/07/04 08:50:41;;;;;;;;;;;;;;;;;;;;;
2022/07/04 08:59:06;;;;;;;176.20;76.75;;;;;;;23.57;57.29;93701.56;4984021;28;20101;-95
2022/07/04 09:01:32;;;;;;;182.63;80.47;;;;;;;23.58;57.08;93716.84;4966115;28;20101;-94
2022/07/04 09:04:15;;;;;;;;;;;;;;;;;;;;;
2022/07/04 09:12:29;;;;;;;181.55;78.10;;;;;;;23.64;57.42;93702.88;5358242;22;20044;-94
2022/07/04 09:15:12;;;;;;;137.20;70.40;;;;;;;23.65;57.63;93718.16;5005666;28;20049;-92
2022/07/04 09:17:38;;;;;;;146.52;62.50;;;;;;;23.57;57.76;93721.63;4984417;28;20029;-91
2022/07/04 09:20:16;;;;;;;130.32;60.22;;;;;;;23.58;57.74;93717.56;4996140;28;20046;-93
2022/07/04 09:22:43;;;;;;;126.70;58.28;;;;;;;23.58;57.74;93720.34;5012274;28;20041;-93
2022/07/04 09:25:12;;;;;;;128.25;56.95;;;;;;;23.65;57.72;93723.69;5017595;28;20109;-93
2022/07/04 09:27:44;;;;;;;148.55;65.03;;;;;;;23.61;58.24;93717.75;4996022;28;20093;-91
2022/07/04 09:30:11;;;;;;;129.32;70.25;;;;;;;23.63;58.09;93713.19;5005006;28;20176;-94
2022/07/04 09:32:50;;;;;;;156.68;75.10;;;;;;;23.62;58.16;93714.47;5016310;28;20038;-91
2022/07/04 09:35:21;;;;;;;136.90;64.45;;;;;;;23.65;58.05;93701.59;5015052;28;20038;-91
2022/07/04 09:37:48;;;;;;;128.45;60.83;;;;;;;23.70;58.13;93704.25;4988182;28;20110;-92
2022/07/04 09:40:25;;;;;;;95.50;53.33;;;;;;;23.66;58.29;93712.09;4989886;28;20080;-94
2022/07/04 09:42:50;;;;;;;115.68;57.75;;;;;;;23.69;58.18;93713.06;5010008;28;20050;-92
2022/07/04 09:45:16;;;;;;;146.90;65.63;;;;;;;23.69;57.88;93708.28;5016718;28;20129;-92
2022/07/04 09:48:23;;;;;;;114.68;56.08;;;;;;;23.69;57.93;93702.00;5010930;28;20056;-95
2022/07/04 09:51:11;;;;;;;;;;;;;;;;;;;;;
2022/07/04 09:53:38;;;;;;;165.20;66.00;;;;;;;23.81;57.46;93708.75;4988026;28;20412;-92
2022/07/04 09:56:05;;;;;;;114.28;50.47;;;;;;;23.82;57.30;93707.44;4997581;28;20045;-90
2022/07/04 10:01:54;;;;;;;125.35;58.72;;;;;;;23.89;57.54;93699.25;5028231;28;20457;-92
2022/07/04 10:05:09;;;;;;;196.65;91.35;;;;;;;23.90;57.40;93697.97;4966530;28;20041;-94
2022/07/04 10:07:43;;;;;;;122.53;61.60;;;;;;;23.96;57.44;93694.31;4959252;28;20784;-94
2022/07/04 10:10:29;;;;;;;106.82;55.22;;;;;;;23.96;57.33;93706.13;4901463;28;20047;-94
2022/07/04 10:12:59;;;;;;;97.68;47.28;;;;;;;23.97;57.30;93710.34;4930571;28;20082;-90
2022/07/04 10:15:36;;;;;;;100.15;48.83;;;;;;;23.91;57.28;93713.25;4980987;28;20048;-91
2022/07/04 10:18:03;;;;;;;107.80;46.00;;;;;;;23.92;57.22;93717.50;4969005;28;20129;-88
2022/07/04 10:20:29;;;;;;;94.95;44.45;;;;;;;23.90;57.24;93720.06;4957549;28;20528;-89
2022/07/04 10:22:54;;;;;;;88.13;42.78;;;;;;;23.88;57.64;93725.38;4957490;28;20042;-91
2022/07/04 10:25:20;;;;;;;76.78;42.17;;;;;;;23.88;57.43;93728.13;4946100;28;20039;-90
2022/07/04 10:27:48;;;;;;;104.18;62.25;;;;;;;23.87;57.60;93718.38;4958676;28;20070;-88
2022/07/04 10:30:15;;;;;;;88.90;51.70;;;;;;;23.93;57.20;93730.03;4941471;28;20039;-89
2022/07/04 10:32:43;;;;;;;75.60;39.22;;;;;;;23.89;57.37;93726.84;4933771;29;20606;-89
2022/07/04 10:35:18;;;;;;;71.38;38.00;;;;;;;23.88;57.25;93739.19;4919578;28;20652;-89
2022/07/04 10:38:09;;;;;;;67.75;37.00;;;;;;;23.84;57.45;93730.47;4907264;29;20190;-94
2022/07/04 10:40:44;;;;;;;62.80;34.90;;;;;;;23.90;57.30;93736.63;4898311;29;20095;-91
2022/07/04 10:43:33;;;;;;;83.40;55.65;;;;;;;23.92;57.25;93736.81;4905884;29;20039;-91
2022/07/04 10:46:10;;;;;;;72.95;45.08;;;;;;;23.90;57.34;93742.16;4923326;29;20110;-91
2022/07/04 10:48:36;;;;;;;64.40;38.80;;;;;;;23.87;57.46;93736.97;4945241;28;20044;-91
2022/07/04 10:51:03;;;;;;;70.72;38.35;;;;;;;23.96;57.24;93736.50;4910910;29;20036;-93
2022/07/04 10:53:29;;;;;;;171.93;49.15;;;;;;;23.97;57.26;93742.75;4912966;29;20056;-91
2022/07/04 10:56:16;;;;;;;132.20;44.13;;;;;;;23.98;57.22;93741.47;4904918;29;20036;-92
2022/07/04 10:58:42;;;;;;;135.93;42.97;;;;;;;23.95;57.33;93735.00;4890117;29;20055;-94
2022/07/04 11:01:21;;;;;;;121.50;52.28;;;;;;;23.91;57.34;93746.38;4882035;29;20044;-92
2022/07/04 11:03:51;;;;;;;169.48;91.05;;;;;;;23.98;57.13;93744.97;4871059;29;20119;-91
2022/07/04 11:06:36;;;;;;;;;;;;;;;23.96;57.05;93746.78;4875261;29;20033;-92
2022/07/04 11:09:25;;;;;;;120.97;61.70;;;;;;;23.96;57.15;93746.78;4934009;29;19922;-91
2022/07/04 11:12:00;;;;;;;91.00;45.50;;;;;;;24.00;57.03;93738.91;4902196;29;20183;-92
2022/07/04 11:14:35;;;;;;;115.35;65.65;;;;;;;23.96;57.09;93752.31;4906961;29;20147;-91
2022/07/04 11:17:01;;;;;;;126.82;67.47;;;;;;;23.94;56.84;93741.81;4919513;29;20299;-93
2022/07/04 11:19:27;;;;;;;116.38;59.60;;;;;;;23.96;56.64;93746.78;4912826;29;20112;-93
2022/07/04 11:21:55;;;;;;;103.18;58.20;;;;;;;23.90;57.03;93738.63;4906413;29;20066;-93
2022/07/04 11:24:22;;;;;;;80.15;45.38;;;;;;;23.88;57.30;93739.19;4919002;29;20580;-92
2022/07/04 11:26:48;;;;;;;178.38;103.13;;;;;;;23.88;57.70;93728.13;4915846;29;20552;-91
2022/07/04 11:29:13;;;;;;;34.67;21.52;;;;;;;23.90;56.19;93727.59;4962255;28;20111;-91
2022/07/04 11:31:43;;;;;;;27.40;16.73;;;;;;;23.82;56.18;93729.53;4918323;29;20074;-91
2022/07/04 11:34:09;;;;;;;18.88;11.35;;;;;;;23.80;55.79;93727.34;4930498;29;20589;-93
2022/07/04 11:36:34;;;;;;;19.98;12.98;;;;;;;23.80;55.74;93732.88;4966859;28;20096;-89
2022/07/04 11:39:02;;;;;;;86.68;42.03;;;;;;;23.80;55.37;93724.59;4987458;28;20038;-93
2022/07/04 11:49:32;;;;;;;63.83;32.33;;;;;;;23.77;55.58;93716.63;5057062;28;20055;-94
2022/07/04 11:51:58;;;;;;;193.98;102.75;;;;;;;23.76;55.42;93723.44;5014792;28;20038;-94
2022/07/04 11:54:35;;;;;;;134.13;60.30;;;;;;;23.78;55.52;93715.34;4957422;28;20042;-94
2022/07/04 11:57:17;;;;;;;152.85;73.68;;;;;;;23.84;55.43;93715.94;4984265;28;20049;-95
2022/07/04 11:59:43;;;;;;;115.85;57.05;;;;;;;23.84;55.34;93724.97;4989331;28;20107;-95
2022/07/04 12:02:15;;;;;;;114.97;55.13;;;;;;;23.83;55.52;93719.97;5000270;23;20424;-95
2022/07/04 12:04:44;;;;;;;140.73;56.15;;;;;;;23.84;55.52;93715.94;4990812;28;20127;-94
2022/07/04 12:12:35;;;;;;;174.30;81.63;;;;;;;23.88;55.31;93699.78;4994140;28;20627;-94
2022/07/04 12:15:08;;;;;;;219.95;103.65;;;;;;;23.90;55.36;93705.50;4957702;28;20053;-92
2022/07/04 12:17:39;;;;;;;244.10;111.30;;;;;;;23.91;55.53;93707.00;4981159;28;20046;-94
2022/07/04 12:20:17;;;;;;;272.95;119.80;;;;;;;23.92;55.48;93698.16;4930039;28;20632;-93
2022/07/04 12:23:44;;;;;;;;;;;;;;;;;;;;;
2022/07/04 12:41:39;;;;;;;199.13;103.72;;;;;;;24.07;55.52;93680.22;5052278;28;20037;-94
2022/07/04 12:44:06;;;;;;;183.20;94.25;;;;;;;24.09;55.13;93689.44;5040113;28;20043;-95
2022/07/04 12:46:55;;;;;;;162.85;88.45;;;;;;;24.09;55.29;93680.41;5015252;28;20060;-89
2022/07/04 12:49:21;;;;;;;155.35;82.32;;;;;;;24.11;55.34;93675.84;5042174;28;20498;-87
2022/07/04 12:52:02;;;;;;;154.70;83.32;;;;;;;24.12;55.47;93680.09;5043519;28;20044;-94
2022/07/04 12:54:28;;;;;;;137.05;79.65;;;;;;;24.16;54.97;93679.75;4974793;28;20058;-94
2022/07/04 12:57:09;;;;;;;145.85;76.97;;;;;;;24.13;55.04;93658.72;4952419;28;20041;-95
2022/07/04 13:00:06;;;;;;;131.25;72.38;;;;;;;24.05;55.44;93664.19;4975913;28;20047;-94
2022/07/04 13:25:48;;;;;;;282.27;153.93;;;;;;;23.98;55.75;93655.88;5059856;28;20040;-94
2022/07/04 13:28:15;;;;;;;299.13;150.70;;;;;;;23.98;55.61;93653.84;4960569;28;20073;-92
2022/07/04 13:31:02;;;;;;;304.10;159.02;;;;;;;23.97;55.82;93657.16;5018530;28;20056;-95
2022/07/04 13:33:37;;;;;;;286.33;159.90;;;;;;;23.97;55.67;93657.88;4972478;28;20046;-94
2022/07/04 13:36:08;;;;;;;296.95;161.82;;;;;;;23.96;56.02;93655.66;4998821;28;20146;-95
2022/07/04 13:38:38;;;;;;;280.90;157.27;;;;;;;23.99;55.61;93660.13;4945454;28;20042;-94
2022/07/04 13:52:39;;;;;;;305.90;182.95;;;;;;;24.01;55.87;93652.03;4222748;22;20040;-89
2022/07/04 13:55:05;;;;;;;364.55;217.35;;;;;;;24.01;55.83;93646.50;5050332;28;20045;-91
2022/07/04 13:57:30;;;;;;;502.02;296.73;;;;;;;24.03;55.75;93644.69;5047704;28;20064;-90
2022/07/04 13:59:59;;;;;;;388.92;232.68;;;;;;;24.09;55.53;93650.78;5049632;28;20049;-92
2022/07/04 14:02:26;;;;;;;338.73;201.60;;;;;;;24.09;55.51;93650.78;5031582;28;20059;-90
2022/07/04 14:04:51;;;;;;;299.70;176.77;;;;;;;24.14;55.45;93652.66;5029319;28;20040;-92